createdAt,value
2019-02-19T00:01:49.710Z,99.90
2019-02-19T00:04:21.466Z,99.90
2019-02-19T00:06:53.121Z,99.90
2019-02-19T00:09:24.878Z,99.90
2019-02-19T00:11:56.676Z,99.90
2019-02-19T00:14:28.426Z,99.90
2019-02-19T00:16:59.975Z,99.90
2019-02-19T00:19:31.536Z,99.90
2019-02-19T00:22:03.084Z,99.90
2019-02-19T00:24:34.446Z,99.90
2019-02-19T00:27:05.978Z,99.90
2019-02-19T00:29:38.269Z,99.90
2019-02-19T00:32:09.643Z,99.90
2019-02-19T00:34:41.043Z,99.90
2019-02-19T00:37:14.573Z,99.90
2019-02-19T00:39:46.095Z,99.90
2019-02-19T00:42:17.802Z,99.90
2019-02-19T00:44:49.522Z,99.90
2019-02-19T00:47:21.061Z,99.90
2019-02-19T00:49:53.000Z,99.90
2019-02-19T00:52:25.376Z,99.90
2019-02-19T00:54:56.843Z,99.90
2019-02-19T00:57:28.365Z,99.90
2019-02-19T00:59:59.652Z,99.90
2019-02-19T01:02:30.967Z,99.90
2019-02-19T01:05:03.202Z,99.90
2019-02-19T01:07:34.518Z,99.90
2019-02-19T01:10:06.421Z,99.90
2019-02-19T01:12:38.137Z,99.90
2019-02-19T01:15:10.855Z,99.90
2019-02-19T01:17:42.175Z,99.90
2019-02-19T01:20:13.825Z,99.90
2019-02-19T01:22:45.209Z,99.90
2019-02-19T01:25:17.087Z,99.90
2019-02-19T01:27:48.381Z,99.90
2019-02-19T01:30:19.993Z,99.90
2019-02-19T01:32:51.542Z,99.90
2019-02-19T01:35:22.849Z,99.90
2019-02-19T01:37:54.202Z,99.90
2019-02-19T01:40:25.522Z,99.90
2019-02-19T01:42:56.791Z,99.90
2019-02-19T01:45:33.885Z,99.90
2019-02-19T01:48:01.411Z,99.90
2019-02-19T01:50:32.936Z,99.90
2019-02-19T01:53:04.651Z,99.90
2019-02-19T01:55:37.102Z,99.90
2019-02-19T01:58:08.608Z,99.90
2019-02-19T02:00:40.009Z,99.90
2019-02-19T02:03:11.556Z,99.90
2019-02-19T02:05:43.121Z,99.90
2019-02-19T02:08:14.569Z,99.90
2019-02-19T02:10:45.736Z,99.90
2019-02-19T02:13:17.433Z,99.90
2019-02-19T02:15:48.784Z,99.90
2019-02-19T02:18:19.960Z,99.90
2019-02-19T02:20:51.187Z,99.90
2019-02-19T02:23:22.732Z,99.90
2019-02-19T02:25:54.040Z,99.90
2019-02-19T02:28:25.584Z,99.90
2019-02-19T02:30:56.959Z,99.90
2019-02-19T02:33:28.130Z,99.90
2019-02-19T02:35:59.315Z,99.90
2019-02-19T02:38:30.829Z,99.90
2019-02-19T02:41:02.117Z,99.90
2019-02-19T02:43:34.009Z,99.90
2019-02-19T02:46:05.299Z,99.90
2019-02-19T02:48:36.858Z,99.90
2019-02-19T02:51:08.049Z,99.90
2019-02-19T02:53:39.444Z,99.90
2019-02-19T02:56:10.599Z,99.90
2019-02-19T02:58:41.761Z,99.90
2019-02-19T03:01:13.119Z,99.90
2019-02-19T03:03:44.378Z,99.90
2019-02-19T03:06:24.412Z,99.90
2019-02-19T03:08:55.699Z,99.90
2019-02-19T03:11:27.115Z,99.90
2019-02-19T03:13:58.303Z,99.90
2019-02-19T03:16:29.548Z,99.90
2019-02-19T03:19:01.319Z,99.90
2019-02-19T03:21:32.497Z,99.90
2019-02-19T03:24:03.753Z,99.90
2019-02-19T03:26:34.923Z,99.90
2019-02-19T03:29:07.059Z,99.90
2019-02-19T03:31:38.301Z,99.90
2019-02-19T03:34:09.504Z,99.90
2019-02-19T03:36:40.695Z,99.90
2019-02-19T03:39:12.425Z,99.90
2019-02-19T03:41:44.044Z,99.90
2019-02-19T03:44:15.433Z,99.90
2019-02-19T03:46:46.773Z,99.90
2019-02-19T03:49:18.063Z,99.90
2019-02-19T03:51:49.536Z,99.90
2019-02-19T03:54:21.159Z,99.90
2019-02-19T03:56:52.559Z,99.90
2019-02-19T03:59:23.942Z,99.90
2019-02-19T04:01:55.313Z,99.90
2019-02-19T04:04:26.730Z,99.90
2019-02-19T04:06:59.091Z,99.90
2019-02-19T04:09:30.754Z,99.90
2019-02-19T04:12:02.117Z,99.90
2019-02-19T04:14:33.258Z,99.90
2019-02-19T04:17:04.837Z,99.90
2019-02-19T04:19:35.992Z,99.90
2019-02-19T04:22:07.715Z,99.90
2019-02-19T04:24:39.519Z,99.90
2019-02-19T04:27:10.685Z,99.90
2019-02-19T04:29:42.272Z,99.90
2019-02-19T04:32:13.555Z,99.90
2019-02-19T04:34:44.731Z,99.90
2019-02-19T04:37:16.155Z,99.90
2019-02-19T04:39:47.407Z,99.90
2019-02-19T04:42:18.584Z,99.90
2019-02-19T04:44:49.768Z,99.90
2019-02-19T04:47:21.013Z,99.90
2019-02-19T04:49:52.194Z,99.90
2019-02-19T04:52:23.374Z,99.90
2019-02-19T04:54:54.528Z,99.90
2019-02-19T04:57:25.960Z,99.90
2019-02-19T04:59:57.143Z,99.90
2019-02-19T05:02:28.353Z,99.90
2019-02-19T05:04:59.497Z,99.90
2019-02-19T05:07:31.231Z,99.90
2019-02-19T05:10:02.543Z,99.90
2019-02-19T05:12:34.121Z,99.90
2019-02-19T05:15:06.153Z,99.90
2019-02-19T05:17:37.690Z,99.90
2019-02-19T05:20:09.389Z,99.90
2019-02-19T05:22:40.538Z,99.90
2019-02-19T05:25:11.785Z,99.90
2019-02-19T05:27:43.162Z,99.90
2019-02-19T05:30:14.634Z,99.90
2019-02-19T05:32:45.773Z,99.90
2019-02-19T05:35:17.019Z,99.90
2019-02-19T05:37:48.258Z,99.90
2019-02-19T05:40:19.877Z,99.90
2019-02-19T05:42:51.161Z,99.90
2019-02-19T05:45:22.354Z,99.90
2019-02-19T05:47:53.537Z,99.90
2019-02-19T05:50:24.739Z,99.90
2019-02-19T05:52:55.994Z,99.90
2019-02-19T05:55:27.241Z,99.90
2019-02-19T05:57:58.397Z,99.90
2019-02-19T06:00:29.924Z,99.90
2019-02-19T06:03:01.115Z,99.90
2019-02-19T06:05:32.292Z,99.90
2019-02-19T06:08:03.461Z,99.90
2019-02-19T06:10:34.644Z,99.90
2019-02-19T06:13:06.305Z,99.90
2019-02-19T06:15:37.650Z,99.90
2019-02-19T06:18:08.872Z,99.90
2019-02-19T06:20:40.077Z,99.90
2019-02-19T06:23:11.569Z,99.90
2019-02-19T06:25:43.152Z,99.90
2019-02-19T06:28:14.653Z,99.90
2019-02-19T06:30:46.318Z,99.90
2019-02-19T06:33:17.451Z,99.90
2019-02-19T06:35:48.660Z,99.90
2019-02-19T06:38:20.087Z,99.90
2019-02-19T06:40:51.776Z,99.90
2019-02-19T06:43:22.987Z,99.90
2019-02-19T06:45:54.205Z,99.90
2019-02-19T06:48:25.340Z,99.90
2019-02-19T06:50:56.554Z,99.90
2019-02-19T06:53:28.791Z,99.90
2019-02-19T06:55:59.973Z,99.90
2019-02-19T06:58:31.285Z,99.90
2019-02-19T07:01:03.806Z,99.90
2019-02-19T07:03:45.259Z,99.90
2019-02-19T07:06:16.949Z,99.90
2019-02-19T07:08:48.369Z,99.90
2019-02-19T07:11:20.942Z,99.90
2019-02-19T07:13:52.474Z,99.90
2019-02-19T07:16:23.847Z,99.90
2019-02-19T07:18:55.220Z,99.90
2019-02-19T07:21:26.659Z,99.90
2019-02-19T07:24:04.460Z,99.90
2019-02-19T07:26:31.257Z,99.90
2019-02-19T07:29:02.597Z,99.90
2019-02-19T07:31:33.954Z,99.90
2019-02-19T07:34:05.409Z,99.90
2019-02-19T07:36:36.886Z,99.90
2019-02-19T07:39:08.285Z,99.90
2019-02-19T07:41:39.613Z,99.90
2019-02-19T07:44:11.017Z,99.90
2019-02-19T07:46:43.003Z,99.90
2019-02-19T07:49:14.255Z,99.90
2019-02-19T07:51:45.576Z,99.90
2019-02-19T07:54:17.035Z,99.90
2019-02-19T07:56:48.549Z,99.90
2019-02-19T07:59:20.347Z,99.90
2019-02-19T08:01:51.842Z,99.90
2019-02-19T08:04:23.249Z,99.90
2019-02-19T08:06:54.693Z,99.90
2019-02-19T08:09:26.019Z,99.90
2019-02-19T08:11:57.395Z,99.90
2019-02-19T08:14:28.682Z,99.90
2019-02-19T08:17:00.210Z,99.90
2019-02-19T08:19:31.763Z,99.90
2019-02-19T08:22:04.826Z,99.90
2019-02-19T08:24:36.147Z,99.90
2019-02-19T08:27:07.745Z,99.90
2019-02-19T08:29:39.058Z,99.90
2019-02-19T08:32:10.532Z,99.90
2019-02-19T08:34:41.756Z,99.90
2019-02-19T08:37:13.254Z,99.90
2019-02-19T08:39:44.622Z,99.90
2019-02-19T08:42:16.017Z,98.90
2019-02-19T08:44:47.554Z,98.70
2019-02-19T08:47:18.948Z,98.80
2019-02-19T08:49:50.326Z,98.10
2019-02-19T08:52:21.828Z,97.30
2019-02-19T08:54:53.445Z,97.50
2019-02-19T08:57:25.274Z,99.40
2019-02-19T08:59:56.889Z,96.10
2019-02-19T09:02:28.100Z,94.30
2019-02-19T09:04:59.768Z,92.50
2019-02-19T09:07:31.448Z,93.60
2019-02-19T09:10:04.525Z,92.50
2019-02-19T09:12:35.840Z,96.90
2019-02-19T09:15:11.012Z,96.50
2019-02-19T09:17:42.109Z,95.40
2019-02-19T09:20:13.945Z,94.60
2019-02-19T09:22:45.661Z,93.40
2019-02-19T09:25:17.354Z,94.10
2019-02-19T09:27:48.741Z,93.80
2019-02-19T09:30:20.100Z,91.20
2019-02-19T09:32:51.620Z,90.70
2019-02-19T09:35:23.299Z,90.80
2019-02-19T09:37:54.609Z,90.70
2019-02-19T09:40:25.946Z,91.00
2019-02-19T09:42:59.652Z,91.80
2019-02-19T09:45:31.025Z,91.10
2019-02-19T09:48:02.348Z,91.30
2019-02-19T09:50:34.554Z,90.60
2019-02-19T09:53:06.698Z,90.90
2019-02-19T09:55:38.343Z,88.80
2019-02-19T09:58:09.589Z,89.30
2019-02-19T10:00:41.032Z,90.80
2019-02-19T10:03:12.870Z,91.10
2019-02-19T10:05:44.275Z,90.90
2019-02-19T10:08:15.541Z,92.40
2019-02-19T10:10:47.251Z,94.00
2019-02-19T10:13:18.603Z,93.80
2019-02-19T10:15:50.193Z,93.80
2019-02-19T10:18:21.684Z,92.90
2019-02-19T10:20:52.974Z,92.10
2019-02-19T10:23:24.375Z,90.80
2019-02-19T10:25:56.121Z,91.80
2019-02-19T10:28:27.493Z,90.90
2019-02-19T10:30:59.373Z,90.40
2019-02-19T10:33:30.904Z,90.20
2019-02-19T10:36:02.242Z,89.40
2019-02-19T10:38:33.673Z,87.10
2019-02-19T10:41:05.331Z,85.10
2019-02-19T10:43:37.164Z,85.20
2019-02-19T10:46:08.957Z,88.70
2019-02-19T10:48:40.363Z,88.10
2019-02-19T10:51:11.882Z,88.40
2019-02-19T10:53:43.210Z,87.80
2019-02-19T10:56:14.835Z,87.90
2019-02-19T10:58:46.227Z,88.70
2019-02-19T11:01:17.652Z,88.30
2019-02-19T11:03:50.360Z,90.40
2019-02-19T11:06:21.760Z,92.70
2019-02-19T11:08:53.797Z,94.00
2019-02-19T11:11:25.287Z,91.60
2019-02-19T11:13:56.640Z,91.60
2019-02-19T11:16:28.026Z,91.40
2019-02-19T13:02:21.167Z,81.80
2019-02-19T13:04:52.343Z,79.40
2019-02-19T13:07:23.767Z,79.50
2019-02-19T13:09:55.278Z,82.10
2019-02-19T13:12:26.626Z,87.30
2019-02-19T13:14:58.066Z,89.30
2019-02-19T13:17:29.645Z,90.60
2019-02-19T13:20:00.831Z,92.00
2019-02-19T13:22:32.159Z,93.00
2019-02-19T13:25:03.789Z,93.20
2019-02-19T13:27:35.182Z,93.70
2019-02-19T13:30:10.502Z,94.90
2019-02-19T13:32:42.259Z,94.30
2019-02-19T13:35:14.090Z,93.60
2019-02-19T13:37:45.286Z,91.70
2019-02-19T13:40:16.639Z,90.60
2019-02-19T13:42:48.078Z,89.40
2019-02-19T13:45:19.679Z,90.00
2019-02-19T13:47:51.079Z,89.40
2019-02-19T13:50:22.535Z,90.20
2019-02-19T13:53:07.636Z,91.40
2019-02-19T13:55:41.876Z,92.70
2019-02-19T13:58:13.081Z,93.70
2019-02-19T14:00:47.190Z,93.90
2019-02-19T14:03:18.914Z,93.90
2019-02-19T14:05:50.405Z,94.80
2019-02-19T14:08:22.381Z,95.20
2019-02-19T14:10:53.876Z,95.40
2019-02-19T14:13:25.096Z,95.20
2019-02-19T14:16:16.851Z,94.50
2019-02-19T14:18:56.361Z,91.20
2019-02-19T14:21:45.597Z,88.60
2019-02-19T14:24:54.018Z,85.30
2019-02-19T14:27:43.933Z,88.50
2019-02-19T14:30:34.119Z,89.50
2019-02-19T14:33:21.875Z,91.00
2019-02-19T14:36:20.326Z,92.10
2019-02-19T14:38:59.589Z,93.60
2019-02-19T14:41:49.554Z,94.30
2019-02-19T14:44:38.644Z,94.20
2019-02-19T14:47:35.010Z,94.60
2019-02-19T14:50:26.463Z,93.90
2019-02-19T14:53:31.866Z,93.40
2019-02-19T14:56:29.986Z,93.10
2019-02-19T14:59:14.057Z,93.70
2019-02-19T15:02:04.250Z,95.10
2019-02-19T15:04:53.169Z,95.10
2019-02-19T15:07:31.694Z,95.10
2019-02-19T15:10:19.746Z,94.70
2019-02-19T15:13:18.704Z,94.20
2019-02-19T15:16:09.299Z,94.60
2019-02-19T15:18:58.061Z,95.10
2019-02-19T15:21:45.094Z,94.80
2019-02-19T15:24:33.772Z,95.40
2019-02-19T15:27:17.698Z,95.00
2019-02-19T15:30:26.005Z,96.00
2019-02-19T15:33:16.104Z,96.80
2019-02-19T15:36:16.527Z,96.80
2019-02-19T15:38:54.607Z,97.30
2019-02-19T15:41:48.312Z,97.70
2019-02-19T15:44:44.431Z,98.80
2019-02-19T15:47:31.351Z,99.60
2019-02-19T15:50:24.747Z,99.70
2019-02-19T15:53:13.784Z,99.90
2019-02-19T15:56:07.133Z,99.90
2019-02-19T15:58:56.174Z,99.90
2019-02-19T16:01:44.159Z,99.90
2019-02-19T16:04:23.608Z,99.90
2019-02-19T16:07:01.262Z,99.90
2019-02-19T16:09:42.842Z,99.90
2019-02-19T16:12:36.060Z,99.90
2019-02-19T16:15:33.192Z,99.90
2019-02-19T16:18:12.726Z,99.90
2019-02-19T16:21:02.845Z,99.90
2019-02-19T16:23:46.830Z,99.90
2019-02-19T16:26:31.698Z,99.90
2019-02-19T16:29:28.203Z,99.90
2019-02-19T16:32:24.329Z,99.90
2019-02-19T16:35:05.155Z,99.90
2019-02-19T16:37:53.951Z,99.90
2019-02-19T16:40:32.590Z,99.90
2019-02-19T16:43:12.148Z,99.90
2019-02-19T16:46:04.340Z,99.90
2019-02-19T16:48:47.095Z,99.90
2019-02-19T16:51:49.507Z,99.90
2019-02-19T16:54:29.110Z,99.90
2019-02-19T16:57:28.471Z,99.90
2019-02-19T17:00:13.636Z,99.90
2019-02-19T17:03:04.141Z,99.90
2019-02-19T17:05:49.562Z,99.90
2019-02-19T17:08:38.171Z,99.90
2019-02-19T17:11:34.252Z,99.90
2019-02-19T17:14:32.748Z,99.90
2019-02-19T17:17:13.383Z,99.90
2019-02-19T17:20:17.588Z,99.90
2019-02-19T17:22:57.949Z,99.90
2019-02-19T17:25:38.882Z,99.90
2019-02-19T17:28:47.850Z,99.90
2019-02-19T17:31:36.716Z,99.90
2019-02-19T17:34:25.737Z,99.90
2019-02-19T17:37:14.996Z,99.90
2019-02-19T17:40:06.569Z,99.90
2019-02-19T17:42:52.685Z,99.90
2019-02-19T17:45:45.612Z,99.90
2019-02-19T17:48:53.990Z,99.90
2019-02-19T17:51:46.827Z,99.90
2019-02-19T17:54:35.678Z,99.90
2019-02-19T17:57:27.145Z,99.90
2019-02-19T18:00:17.199Z,99.90
2019-02-19T18:03:16.755Z,99.90
2019-02-19T18:06:08.896Z,99.90
2019-02-19T18:09:08.426Z,99.90
2019-02-19T18:12:07.754Z,99.90
2019-02-19T18:14:51.527Z,99.90
2019-02-19T18:17:38.573Z,99.90
2019-02-19T18:20:09.940Z,99.90
2019-02-19T18:22:41.254Z,99.90
2019-02-19T18:25:13.517Z,99.90
2019-02-19T18:27:45.001Z,99.90
2019-02-19T18:30:16.275Z,99.90
2019-02-19T18:32:47.916Z,99.90
2019-02-19T18:35:19.159Z,99.90
2019-02-19T18:37:50.359Z,99.90
2019-02-19T18:40:21.787Z,99.90
2019-02-19T18:42:53.321Z,99.90
2019-02-19T18:45:24.444Z,99.90
2019-02-19T18:47:55.957Z,99.90
2019-02-19T18:50:27.099Z,99.90
2019-02-19T18:52:58.306Z,99.90
2019-02-19T18:55:29.807Z,99.90
2019-02-19T18:58:01.067Z,99.90
2019-02-19T19:00:32.416Z,99.90
2019-02-19T19:03:06.800Z,99.90
2019-02-19T19:05:38.432Z,99.90
2019-02-19T19:08:09.973Z,99.90
2019-02-19T19:10:41.721Z,99.90
2019-02-19T19:13:13.375Z,99.90
2019-02-19T19:16:01.366Z,99.90
2019-02-19T19:18:32.499Z,99.90
2019-02-19T19:21:07.952Z,99.90
2019-02-19T19:23:41.487Z,99.90
2019-02-19T19:26:12.811Z,99.90
2019-02-19T19:28:44.185Z,99.90
2019-02-19T19:31:18.495Z,99.90
2019-02-19T19:33:51.438Z,99.90
2019-02-19T19:36:26.741Z,99.90
2019-02-19T19:39:04.742Z,99.90
2019-02-19T19:41:41.184Z,99.90
2019-02-19T19:44:13.232Z,99.90
2019-02-19T19:46:44.588Z,99.90
2019-02-19T19:49:15.923Z,99.90
2019-02-19T19:51:47.315Z,99.90
2019-02-19T19:54:18.678Z,99.90
2019-02-19T19:56:50.614Z,99.90
2019-02-19T19:59:22.333Z,99.90
2019-02-19T20:01:53.640Z,99.90
2019-02-19T20:04:25.011Z,99.90
2019-02-19T20:06:56.473Z,99.90
2019-02-19T20:09:27.843Z,99.90
2019-02-19T20:12:01.188Z,99.90
2019-02-19T20:14:38.942Z,99.90
2019-02-19T20:17:15.533Z,99.90
2019-02-19T20:19:44.140Z,99.90
2019-02-19T20:22:15.360Z,99.90
2019-02-19T20:24:46.729Z,99.90
2019-02-19T20:27:18.682Z,99.90
2019-02-19T20:29:50.029Z,99.90
2019-02-19T20:32:21.604Z,99.90
2019-02-19T20:34:52.939Z,99.90
2019-02-19T20:37:24.443Z,99.90
2019-02-19T20:39:55.718Z,99.90
2019-02-19T20:42:27.263Z,99.90
2019-02-19T20:44:59.267Z,99.90
2019-02-19T20:47:31.922Z,99.90
2019-02-19T20:50:03.732Z,99.90
2019-02-19T20:52:35.110Z,99.90
2019-02-19T20:55:07.429Z,99.90
2019-02-19T20:57:38.967Z,99.90
2019-02-19T21:00:15.109Z,99.90
2019-02-19T21:02:48.415Z,99.90
2019-02-19T21:05:20.114Z,99.90
2019-02-19T21:07:51.749Z,99.90
2019-02-19T21:10:24.316Z,99.90
2019-02-19T21:12:55.830Z,99.90
2019-02-19T21:15:27.312Z,99.90
2019-02-19T21:17:58.906Z,99.90
2019-02-19T21:20:31.375Z,99.90
2019-02-19T21:23:06.757Z,99.90
2019-02-19T21:25:38.278Z,99.90
2019-02-19T21:28:10.629Z,99.90
2019-02-19T21:30:42.139Z,99.90
2019-02-19T21:33:14.281Z,99.90
2019-02-19T21:35:46.350Z,99.90
2019-02-19T21:38:18.989Z,99.90
2019-02-19T21:40:50.653Z,99.90
2019-02-19T21:43:22.554Z,99.90
2019-02-19T21:45:54.284Z,99.90
2019-02-19T21:48:26.190Z,99.90
2019-02-19T21:50:57.893Z,99.90
2019-02-19T21:53:29.384Z,99.90
2019-02-19T21:56:01.712Z,99.90
2019-02-19T21:58:33.438Z,99.90
2019-02-19T22:01:05.363Z,99.90
2019-02-19T22:03:39.411Z,99.90
2019-02-19T22:06:11.269Z,99.90
2019-02-19T22:08:42.681Z,99.90
2019-02-19T22:11:15.647Z,99.90
2019-02-19T22:13:47.822Z,99.90
2019-02-19T22:16:19.860Z,99.90
2019-02-19T22:18:55.614Z,99.90
2019-02-19T22:21:34.246Z,99.90
2019-02-19T22:24:06.694Z,99.90
2019-02-19T22:26:38.586Z,99.90
2019-02-19T22:29:10.275Z,99.90
2019-02-19T22:31:41.671Z,99.90
2019-02-19T22:34:12.950Z,99.90
2019-02-19T22:36:44.422Z,99.90
2019-02-19T22:39:15.702Z,99.90
2019-02-19T22:41:47.505Z,99.90
2019-02-19T22:44:19.114Z,99.90
2019-02-19T22:46:50.839Z,99.90
2019-02-19T22:49:22.206Z,99.90
2019-02-19T22:51:53.836Z,99.90
2019-02-19T22:54:42.848Z,99.90
2019-02-19T22:57:14.324Z,99.90
2019-02-19T22:59:45.625Z,99.90
2019-02-19T23:02:25.633Z,99.90
2019-02-19T23:04:57.150Z,99.90
2019-02-19T23:07:28.705Z,99.90
2019-02-19T23:10:00.212Z,99.90
2019-02-19T23:12:31.586Z,99.90
2019-02-19T23:15:02.938Z,99.90
2019-02-19T23:17:35.595Z,99.90
2019-02-19T23:20:07.236Z,99.90
2019-02-19T23:22:38.891Z,99.90
2019-02-19T23:25:10.772Z,99.90
2019-02-19T23:27:42.269Z,99.90
2019-02-19T23:30:13.955Z,99.90
2019-02-19T23:32:46.123Z,99.90
2019-02-19T23:35:24.173Z,99.90
2019-02-19T23:37:55.547Z,99.90
2019-02-19T23:40:27.363Z,99.90
2019-02-19T23:42:59.134Z,99.90
2019-02-19T23:45:30.828Z,99.90
2019-02-19T23:48:02.254Z,99.90
2019-02-19T23:50:33.741Z,99.90
2019-02-19T23:53:05.519Z,99.90
2019-02-19T23:55:36.951Z,99.90
2019-02-19T23:58:08.401Z,99.90
